Time;durP1;ratioP1;P1;durP2;ratioP2;P2;SDS_P1;SDS_P2;PMS_P1;PMS_P2;Temp;Humidity;BMP_temperature;BMP_pressure;BME280_temperature;BME280_humidity;BME280_pressure;Samples;Min_cycle;Max_cycle;Signal;HPM_P1;HPM_P2
2023/03/07 00:00:55;;;;;;;39.78;20.02;;;;;;;;;;4995640;28;20177;-45
2023/03/07 00:03:21;;;;;;;36.40;17.80;;;;;;;;;;4996645;28;20649;-45
2023/03/07 00:05:47;;;;;;;43.37;19.20;;;;;;;;;;4997133;28;20408;-45
2023/03/07 00:08:13;;;;;;;42.95;19.30;;;;;;;;;;4998472;28;20415;-46
2023/03/07 00:10:39;;;;;;;42.00;18.63;;;;;;;;;;4997167;28;20184;-45
2023/03/07 00:13:05;;;;;;;40.60;17.70;;;;;;;;;;4997365;28;20562;-44
2023/03/07 00:15:31;;;;;;;37.53;18.15;;;;;;;;;;4995027;28;20424;-47
2023/03/07 00:17:57;;;;;;;33.90;17.90;;;;;;;;;;4996119;28;20260;-47
2023/03/07 00:20:23;;;;;;;31.02;16.88;;;;;;;;;;4995429;28;20667;-46
2023/03/07 00:22:49;;;;;;;38.33;17.10;;;;;;;;;;4995790;28;20267;-47
2023/03/07 00:25:15;;;;;;;35.77;17.27;;;;;;;;;;4995810;28;20892;-46
2023/03/07 00:27:41;;;;;;;34.13;16.70;;;;;;;;;;4995552;28;20470;-46
2023/03/07 00:30:09;;;;;;;34.67;16.57;;;;;;;;;;4994894;28;20468;-45
2023/03/07 00:32:35;;;;;;;33.70;15.68;;;;;;;;;;4995525;28;20436;-44
2023/03/07 00:35:03;;;;;;;31.37;16.17;;;;;;;;;;4994991;28;20197;-45
2023/03/07 00:37:29;;;;;;;24.60;13.02;;;;;;;;;;4995810;28;20959;-47
2023/03/07 00:39:55;;;;;;;22.05;11.82;;;;;;;;;;4995641;28;20720;-45
2023/03/07 00:42:21;;;;;;;28.65;11.57;;;;;;;;;;4994766;28;20197;-45
2023/03/07 00:44:47;;;;;;;25.00;12.63;;;;;;;;;;4993796;28;20292;-46
2023/03/07 00:47:13;;;;;;;21.10;12.00;;;;;;;;;;4995470;28;20428;-45
2023/03/07 00:49:39;;;;;;;20.47;11.50;;;;;;;;;;4996298;28;20467;-45
2023/03/07 00:52:05;;;;;;;20.13;10.90;;;;;;;;;;4996451;28;20510;-45
2023/03/07 00:54:31;;;;;;;20.08;10.68;;;;;;;;;;4996594;28;20936;-45
2023/03/07 00:56:57;;;;;;;20.80;10.53;;;;;;;;;;4996140;28;20181;-45
2023/03/07 00:59:23;;;;;;;23.00;11.60;;;;;;;;;;4994819;28;20860;-45
2023/03/07 01:01:49;;;;;;;19.43;11.53;;;;;;;;;;4995447;28;20829;-45
2023/03/07 01:04:15;;;;;;;18.95;10.80;;;;;;;;;;4996215;28;20511;-46
2023/03/07 01:06:41;;;;;;;15.63;10.07;;;;;;;;;;4998959;28;20181;-47
2023/03/07 01:09:08;;;;;;;21.30;10.20;;;;;;;;;;4995776;28;20459;-47
2023/03/07 01:11:34;;;;;;;19.52;9.88;;;;;;;;;;4994786;28;20931;-45
2023/03/07 01:14:03;;;;;;;16.13;9.30;;;;;;;;;;4995894;28;20168;-45
2023/03/07 01:16:30;;;;;;;13.68;8.13;;;;;;;;;;4994897;28;20177;-47
2023/03/07 01:18:57;;;;;;;17.52;9.50;;;;;;;;;;4994792;28;20191;-46
2023/03/07 01:21:31;;;;;;;19.70;10.10;;;;;;;;;;4993804;28;20646;-46
2023/03/07 01:23:57;;;;;;;18.55;8.95;;;;;;;;;;4994821;28;20251;-46
2023/03/07 01:26:24;;;;;;;15.50;8.30;;;;;;;;;;4995088;28;20185;-46
2023/03/07 01:28:50;;;;;;;15.00;8.93;;;;;;;;;;4995360;28;20196;-45
2023/03/07 01:31:16;;;;;;;18.60;9.90;;;;;;;;;;4994903;28;20197;-48
2023/03/07 01:33:42;;;;;;;10.37;7.50;;;;;;;;;;4994539;28;20202;-44
2023/03/07 01:36:16;;;;;;;15.23;7.53;;;;;;;;;;4994592;28;20756;-45
2023/03/07 01:38:42;;;;;;;12.48;7.95;;;;;;;;;;4994387;28;20481;-45
2023/03/07 01:41:09;;;;;;;11.53;8.03;;;;;;;;;;4985774;28;20735;-47
2023/03/07 01:43:35;;;;;;;15.20;9.10;;;;;;;;;;4993301;28;20502;-46
2023/03/07 01:46:03;;;;;;;15.07;8.30;;;;;;;;;;4993802;28;20228;-47
2023/03/07 01:48:29;;;;;;;11.57;8.40;;;;;;;;;;4994170;28;20463;-45
2023/03/07 01:50:55;;;;;;;12.63;8.67;;;;;;;;;;4993465;28;20252;-47
2023/03/07 01:53:21;;;;;;;11.03;7.60;;;;;;;;;;4994280;28;20416;-46
2023/03/07 01:55:47;;;;;;;14.73;8.10;;;;;;;;;;4993610;28;20420;-47
2023/03/07 01:58:14;;;;;;;12.77;8.70;;;;;;;;;;4993455;28;20896;-45
2023/03/07 02:00:41;;;;;;;12.98;7.40;;;;;;;;;;4990884;28;20173;-47
2023/03/07 02:03:10;;;;;;;14.65;8.90;;;;;;;;;;4993972;28;20283;-47
2023/03/07 02:05:38;;;;;;;13.40;8.30;;;;;;;;;;4992956;28;20723;-45
2023/03/07 02:08:07;;;;;;;11.85;8.15;;;;;;;;;;4993419;28;20637;-46
2023/03/07 02:10:33;;;;;;;14.65;7.90;;;;;;;;;;4992797;28;20227;-45
2023/03/07 02:12:59;;;;;;;10.68;7.22;;;;;;;;;;4993458;28;20220;-45
2023/03/07 02:15:25;;;;;;;11.87;6.40;;;;;;;;;;4991844;28;20177;-45
2023/03/07 02:17:52;;;;;;;13.90;7.78;;;;;;;;;;4992888;28;20428;-45
2023/03/07 02:20:29;;;;;;;10.63;7.03;;;;;;;;;;4992762;28;20188;-46
2023/03/07 02:22:56;;;;;;;14.85;7.93;;;;;;;;;;4993438;28;20219;-46
2023/03/07 02:25:25;;;;;;;12.27;7.10;;;;;;;;;;4993245;28;20259;-45
2023/03/07 02:27:52;;;;;;;10.50;7.20;;;;;;;;;;4993203;28;20252;-47
2023/03/07 02:30:18;;;;;;;12.10;7.40;;;;;;;;;;4997132;28;20700;-46
2023/03/07 02:32:44;;;;;;;8.90;6.03;;;;;;;;;;4993617;28;20229;-47
2023/03/07 02:35:17;;;;;;;6.23;4.60;;;;;;;;;;4996853;28;20255;-47
2023/03/07 02:37:45;;;;;;;8.73;6.20;;;;;;;;;;4993096;28;20412;-45
2023/03/07 02:40:12;;;;;;;10.85;6.80;;;;;;;;;;4992520;28;20300;-47
2023/03/07 02:42:40;;;;;;;7.20;5.00;;;;;;;;;;4993539;28;20219;-46
2023/03/07 02:45:08;;;;;;;5.10;4.10;;;;;;;;;;4991556;28;20181;-46
2023/03/07 02:47:35;;;;;;;8.90;5.60;;;;;;;;;;4987906;28;20572;-46
2023/03/07 02:50:01;;;;;;;6.72;4.70;;;;;;;;;;4992439;28;20247;-46
2023/03/07 02:52:27;;;;;;;8.23;5.38;;;;;;;;;;4993769;28;20212;-45
2023/03/07 02:54:53;;;;;;;8.75;6.13;;;;;;;;;;4992624;28;20173;-47
2023/03/07 02:57:19;;;;;;;8.25;5.60;;;;;;;;;;4992860;28;20177;-45
2023/03/07 02:59:45;;;;;;;7.93;5.57;;;;;;;;;;4992346;28;20212;-46
2023/03/07 03:02:11;;;;;;;6.90;5.57;;;;;;;;;;4992129;28;20455;-45
2023/03/07 03:04:37;;;;;;;6.72;5.25;;;;;;;;;;4992945;28;20405;-46
2023/03/07 03:07:03;;;;;;;7.20;5.93;;;;;;;;;;4992769;28;20212;-46
2023/03/07 03:09:30;;;;;;;7.75;5.15;;;;;;;;;;4992733;28;20208;-46
2023/03/07 03:11:56;;;;;;;7.10;5.15;;;;;;;;;;4991934;28;20201;-46
2023/03/07 03:14:22;;;;;;;5.97;4.60;;;;;;;;;;4990864;28;20188;-45
2023/03/07 03:16:48;;;;;;;5.72;5.00;;;;;;;;;;4992656;28;20181;-45
2023/03/07 03:19:14;;;;;;;6.63;4.40;;;;;;;;;;4992590;28;20691;-45
2023/03/07 03:21:41;;;;;;;6.10;5.20;;;;;;;;;;4992187;28;20786;-47
2023/03/07 03:24:07;;;;;;;5.63;4.90;;;;;;;;;;4992257;28;20173;-47
2023/03/07 03:26:34;;;;;;;5.00;3.97;;;;;;;;;;4992598;28;20225;-46
2023/03/07 03:29:00;;;;;;;4.57;4.18;;;;;;;;;;4994337;28;20646;-45
2023/03/07 03:31:27;;;;;;;7.93;4.20;;;;;;;;;;4996155;28;20219;-45
2023/03/07 03:33:53;;;;;;;4.32;3.95;;;;;;;;;;4996678;28;20196;-45
2023/03/07 03:36:24;;;;;;;4.43;4.03;;;;;;;;;;4997004;28;20203;-45
2023/03/07 03:38:51;;;;;;;4.35;3.95;;;;;;;;;;4997636;28;20666;-45
2023/03/07 03:41:17;;;;;;;6.53;4.30;;;;;;;;;;4997154;28;20263;-46
2023/03/07 03:43:43;;;;;;;4.93;3.93;;;;;;;;;;4996717;28;20749;-45
2023/03/07 03:46:10;;;;;;;6.43;4.75;;;;;;;;;;4997026;28;20816;-45
2023/03/07 03:48:36;;;;;;;4.80;4.25;;;;;;;;;;4996847;28;20598;-45
2023/03/07 03:51:09;;;;;;;6.90;4.00;;;;;;;;;;4996250;28;20235;-46
2023/03/07 03:53:39;;;;;;;4.65;4.20;;;;;;;;;;4996599;28;20427;-47
2023/03/07 03:56:06;;;;;;;4.90;3.80;;;;;;;;;;4996249;28;20518;-47
2023/03/07 04:01:35;;;;;;;5.68;4.60;;;;;;;;;;4991168;28;20283;-46
2023/03/07 04:04:02;;;;;;;7.17;4.80;;;;;;;;;;4995816;28;20286;-46
2023/03/07 04:06:29;;;;;;;6.20;5.22;;;;;;;;;;4996558;28;20468;-46
2023/03/07 04:08:55;;;;;;;4.68;4.28;;;;;;;;;;4996704;28;20266;-45
2023/03/07 04:11:22;;;;;;;4.88;4.20;;;;;;;;;;4995744;28;20713;-46
2023/03/07 04:13:48;;;;;;;7.82;5.60;;;;;;;;;;4995882;28;20177;-47
2023/03/07 04:16:15;;;;;;;5.90;5.05;;;;;;;;;;4996600;28;20229;-45
2023/03/07 04:18:41;;;;;;;5.63;4.97;;;;;;;;;;4995378;28;20283;-46
2023/03/07 04:21:09;;;;;;;8.18;5.25;;;;;;;;;;4994992;28;20187;-46
2023/03/07 04:23:36;;;;;;;7.97;4.65;;;;;;;;;;4995560;28;20180;-46
2023/03/07 04:26:03;;;;;;;6.95;5.05;;;;;;;;;;4995770;28;20648;-45
2023/03/07 04:28:47;;;;;;;6.68;4.85;;;;;;;;;;4995900;28;20208;-45
2023/03/07 04:31:15;;;;;;;5.22;4.72;;;;;;;;;;4993931;28;20223;-45
2023/03/07 04:33:41;;;;;;;8.77;5.95;;;;;;;;;;4994564;28;20185;-44
2023/03/07 04:36:07;;;;;;;4.80;4.10;;;;;;;;;;4993695;28;20240;-44
2023/03/07 04:38:33;;;;;;;7.70;4.95;;;;;;;;;;4994342;28;20177;-44
2023/03/07 04:40:59;;;;;;;5.57;4.30;;;;;;;;;;4992533;28;20649;-45
2023/03/07 04:43:25;;;;;;;6.10;4.30;;;;;;;;;;4994667;28;20420;-45
2023/03/07 04:45:52;;;;;;;5.93;5.27;;;;;;;;;;4994752;28;20458;-45
2023/03/07 04:48:19;;;;;;;5.55;5.05;;;;;;;;;;4994654;28;20404;-44
2023/03/07 04:50:45;;;;;;;5.28;4.53;;;;;;;;;;4992141;28;20203;-44
2023/03/07 04:53:11;;;;;;;8.83;5.40;;;;;;;;;;4993375;28;20251;-45
2023/03/07 04:55:36;;;;;;;6.90;5.27;;;;;;;;;;4994093;28;20419;-44
2023/03/07 04:58:03;;;;;;;9.20;6.53;;;;;;;;;;4994274;28;20415;-44
2023/03/07 05:00:29;;;;;;;10.90;7.78;;;;;;;;;;4993415;28;20420;-44
2023/03/07 05:03:00;;;;;;;12.30;7.80;;;;;;;;;;4993963;28;20200;-44
2023/03/07 05:05:26;;;;;;;13.30;9.00;;;;;;;;;;4994067;28;20503;-45
2023/03/07 05:07:52;;;;;;;13.20;9.30;;;;;;;;;;4991841;28;20252;-45
2023/03/07 05:10:18;;;;;;;16.17;10.60;;;;;;;;;;4993358;28;20212;-45
2023/03/07 05:12:44;;;;;;;13.30;9.35;;;;;;;;;;4993865;28;20531;-45
2023/03/07 05:15:10;;;;;;;14.27;10.37;;;;;;;;;;4992906;28;20268;-44
2023/03/07 05:17:36;;;;;;;16.30;11.30;;;;;;;;;;4993827;28;20926;-44
2023/03/07 05:20:02;;;;;;;19.73;10.57;;;;;;;;;;4993447;28;20187;-45
2023/03/07 05:22:28;;;;;;;16.20;10.82;;;;;;;;;;4993203;28;20440;-44
2023/03/07 05:24:54;;;;;;;15.10;10.37;;;;;;;;;;4993675;28;20549;-45
2023/03/07 05:27:20;;;;;;;17.10;11.40;;;;;;;;;;4993566;28;20423;-44
2023/03/07 05:29:46;;;;;;;11.53;9.07;;;;;;;;;;4993245;28;20467;-44
2023/03/07 05:32:12;;;;;;;13.60;9.63;;;;;;;;;;4992855;28;20452;-45
2023/03/07 05:34:38;;;;;;;19.43;12.70;;;;;;;;;;4992986;28;20590;-45
2023/03/07 05:37:04;;;;;;;14.80;11.33;;;;;;;;;;4993223;28;20643;-44
2023/03/07 05:39:30;;;;;;;13.30;10.25;;;;;;;;;;4993484;28;20475;-44
2023/03/07 05:41:56;;;;;;;15.80;11.40;;;;;;;;;;4992613;28;20192;-44
2023/03/07 05:44:22;;;;;;;17.50;10.87;;;;;;;;;;4993359;28;20652;-44
2023/03/07 05:46:48;;;;;;;16.90;11.23;;;;;;;;;;4992086;28;20510;-44
2023/03/07 05:49:14;;;;;;;19.67;10.30;;;;;;;;;;4992311;28;20463;-44
2023/03/07 05:51:40;;;;;;;16.27;10.97;;;;;;;;;;4991963;28;20485;-45
2023/03/07 05:54:06;;;;;;;14.13;11.27;;;;;;;;;;4992988;28;20416;-45
2023/03/07 05:56:32;;;;;;;16.70;10.17;;;;;;;;;;4993093;28;20420;-44
2023/03/07 05:58:58;;;;;;;18.10;10.60;;;;;;;;;;4993039;28;20723;-44
2023/03/07 06:01:23;;;;;;;16.37;10.53;;;;;;;;;;4992303;28;20436;-45
2023/03/07 06:03:49;;;;;;;13.57;9.70;;;;;;;;;;4992924;28;20424;-44
2023/03/07 06:06:15;;;;;;;12.80;10.30;;;;;;;;;;4992765;28;20470;-44
2023/03/07 06:08:41;;;;;;;15.60;9.90;;;;;;;;;;4992836;28;20802;-45
2023/03/07 06:11:09;;;;;;;21.73;11.20;;;;;;;;;;4992239;28;20419;-45
2023/03/07 06:13:35;;;;;;;15.65;10.57;;;;;;;;;;4992722;28;20492;-44
2023/03/07 06:16:01;;;;;;;15.40;11.00;;;;;;;;;;4991509;28;20181;-45
2023/03/07 06:18:27;;;;;;;12.95;9.25;;;;;;;;;;4991993;28;20443;-45
2023/03/07 06:21:04;;;;;;;16.70;11.43;;;;;;;;;;4992452;28;20410;-45
2023/03/07 06:23:31;;;;;;;12.73;8.70;;;;;;;;;;4992820;28;20412;-44
2023/03/07 06:25:57;;;;;;;11.45;8.30;;;;;;;;;;4992536;28;20646;-44
2023/03/07 06:28:23;;;;;;;16.63;10.20;;;;;;;;;;4992480;28;20235;-44
2023/03/07 06:30:50;;;;;;;19.67;11.55;;;;;;;;;;4991777;28;20181;-44
2023/03/07 06:33:16;;;;;;;16.75;10.68;;;;;;;;;;4992222;28;20220;-45
2023/03/07 06:35:42;;;;;;;17.35;11.05;;;;;;;;;;4992398;28;20177;-45
2023/03/07 06:38:09;;;;;;;16.88;11.15;;;;;;;;;;4984770;28;20220;-44
2023/03/07 06:40:35;;;;;;;17.05;11.40;;;;;;;;;;4991735;28;20177;-45
2023/03/07 06:43:01;;;;;;;22.00;12.40;;;;;;;;;;4992271;28;20640;-45
2023/03/07 06:45:27;;;;;;;13.80;10.50;;;;;;;;;;4992348;28;20219;-45
2023/03/07 06:47:53;;;;;;;14.83;10.17;;;;;;;;;;4990557;28;20428;-44
2023/03/07 06:50:19;;;;;;;17.53;11.00;;;;;;;;;;4991223;28;21060;-44
2023/03/07 06:52:45;;;;;;;17.33;11.45;;;;;;;;;;4995463;28;20463;-44
2023/03/07 06:55:11;;;;;;;16.73;11.77;;;;;;;;;;4992250;28;20663;-45
2023/03/07 06:57:37;;;;;;;21.63;12.50;;;;;;;;;;4992090;28;20411;-44
2023/03/07 07:00:04;;;;;;;17.27;11.73;;;;;;;;;;4991748;28;20181;-47
2023/03/07 07:02:30;;;;;;;17.27;12.02;;;;;;;;;;4992078;28;20810;-44
2023/03/07 07:04:57;;;;;;;21.65;12.30;;;;;;;;;;4999347;28;20529;-44
2023/03/07 07:07:23;;;;;;;19.50;12.45;;;;;;;;;;4996225;28;20608;-45
2023/03/07 07:09:49;;;;;;;19.60;12.95;;;;;;;;;;4995902;28;20205;-45
2023/03/07 07:12:16;;;;;;;17.58;11.75;;;;;;;;;;4995308;28;20711;-45
2023/03/07 07:14:42;;;;;;;19.20;13.07;;;;;;;;;;4996839;28;20192;-45
2023/03/07 07:17:08;;;;;;;20.40;11.27;;;;;;;;;;4995168;28;20173;-45
2023/03/07 07:19:34;;;;;;;15.77;10.40;;;;;;;;;;4995893;28;20400;-44
2023/03/07 07:22:00;;;;;;;18.67;10.23;;;;;;;;;;4995231;28;20435;-44
2023/03/07 07:24:26;;;;;;;14.80;10.03;;;;;;;;;;4994743;28;20181;-45
2023/03/07 07:26:51;;;;;;;19.33;11.10;;;;;;;;;;4995714;28;20502;-44
2023/03/07 07:29:17;;;;;;;13.67;9.80;;;;;;;;;;4995740;28;20464;-45
2023/03/07 07:31:43;;;;;;;18.27;11.05;;;;;;;;;;4994951;28;20515;-44
2023/03/07 07:34:10;;;;;;;13.67;9.77;;;;;;;;;;4995694;28;20630;-45
2023/03/07 07:36:37;;;;;;;10.30;7.47;;;;;;;;;;4995647;28;20420;-44
2023/03/07 07:39:04;;;;;;;15.48;10.40;;;;;;;;;;4995666;28;20181;-44
2023/03/07 07:41:30;;;;;;;14.38;10.20;;;;;;;;;;4989863;28;20591;-44
2023/03/07 07:43:57;;;;;;;16.27;11.60;;;;;;;;;;4995520;28;20247;-45
2023/03/07 07:46:23;;;;;;;14.30;10.20;;;;;;;;;;4994705;28;20196;-45
2023/03/07 07:48:49;;;;;;;15.88;10.88;;;;;;;;;;4993423;28;20212;-45
2023/03/07 07:51:14;;;;;;;15.90;10.33;;;;;;;;;;4993089;28;20177;-45
2023/03/07 07:53:40;;;;;;;17.77;11.23;;;;;;;;;;4995342;28;20502;-44
2023/03/07 07:56:07;;;;;;;18.80;11.60;;;;;;;;;;4995271;28;20400;-44
2023/03/07 07:58:33;;;;;;;17.10;10.27;;;;;;;;;;4995236;28;20494;-46
2023/03/07 08:00:59;;;;;;;17.58;11.55;;;;;;;;;;4996195;28;20183;-45
2023/03/07 08:03:25;;;;;;;20.40;11.00;;;;;;;;;;4999587;28;20181;-45
2023/03/07 08:05:51;;;;;;;20.98;11.50;;;;;;;;;;4995075;28;20923;-44
2023/03/07 08:08:18;;;;;;;19.80;12.20;;;;;;;;;;4995051;28;20216;-45
2023/03/07 08:10:47;;;;;;;17.75;8.60;;;;;;;;;;4994324;28;20446;-45
2023/03/07 08:13:14;;;;;;;19.92;12.02;;;;;;;;;;4995073;28;20207;-44
2023/03/07 08:15:41;;;;;;;17.23;10.90;;;;;;;;;;4994710;28;20173;-46
2023/03/07 08:18:08;;;;;;;14.48;10.32;;;;;;;;;;4991630;28;20169;-44
2023/03/07 08:20:35;;;;;;;16.92;10.73;;;;;;;;;;4994119;28;20189;-45
2023/03/07 08:23:02;;;;;;;26.58;12.07;;;;;;;;;;4994536;28;20259;-45
2023/03/07 08:25:28;;;;;;;18.05;11.05;;;;;;;;;;4994864;28;20177;-44
2023/03/07 08:27:56;;;;;;;17.47;10.60;;;;;;;;;;4994781;28;20601;-44
2023/03/07 08:30:24;;;;;;;17.73;10.90;;;;;;;;;;4994029;28;20998;-45
2023/03/07 08:32:51;;;;;;;16.90;11.23;;;;;;;;;;4994374;28;20247;-44
2023/03/07 08:35:17;;;;;;;22.25;11.63;;;;;;;;;;4994658;28;20208;-44
2023/03/07 08:37:43;;;;;;;19.25;11.05;;;;;;;;;;4994511;28;20169;-44
2023/03/07 08:40:09;;;;;;;16.65;10.98;;;;;;;;;;4993834;28;20192;-45
2023/03/07 08:42:35;;;;;;;18.52;11.75;;;;;;;;;;4994385;28;20209;-44
2023/03/07 08:45:01;;;;;;;18.40;11.10;;;;;;;;;;4994489;28;20177;-44
2023/03/07 08:47:27;;;;;;;17.30;11.20;;;;;;;;;;4992889;28;20955;-44
2023/03/07 08:49:53;;;;;;;19.40;11.43;;;;;;;;;;4994175;28;20468;-45
2023/03/07 08:52:19;;;;;;;18.70;11.17;;;;;;;;;;4992950;28;20535;-45
2023/03/07 08:54:45;;;;;;;15.60;10.97;;;;;;;;;;4994213;28;20499;-45
2023/03/07 08:57:11;;;;;;;18.17;10.63;;;;;;;;;;4994338;28;20475;-45
2023/03/07 08:59:37;;;;;;;14.50;11.30;;;;;;;;;;4992826;28;20424;-46
2023/03/07 09:02:03;;;;;;;15.43;10.93;;;;;;;;;;4991291;28;20452;-45
2023/03/07 09:04:29;;;;;;;16.77;10.10;;;;;;;;;;4992631;28;20444;-45
2023/03/07 09:06:58;;;;;;;15.15;10.57;;;;;;;;;;4992689;28;20425;-45
2023/03/07 09:09:24;;;;;;;13.52;9.43;;;;;;;;;;4993624;28;20200;-46
2023/03/07 09:11:50;;;;;;;18.00;10.03;;;;;;;;;;4993082;28;20200;-46
2023/03/07 09:14:16;;;;;;;14.40;10.27;;;;;;;;;;4992211;28;20498;-45
2023/03/07 09:16:42;;;;;;;16.00;9.20;;;;;;;;;;4993623;28;20411;-45
2023/03/07 09:19:08;;;;;;;14.03;9.63;;;;;;;;;;4993663;28;20177;-46
2023/03/07 09:21:34;;;;;;;13.77;8.70;;;;;;;;;;4992623;28;20485;-45
2023/03/07 09:24:00;;;;;;;12.93;9.40;;;;;;;;;;4990765;28;20255;-46
2023/03/07 09:26:26;;;;;;;10.97;6.67;;;;;;;;;;4992186;28;20420;-45
2023/03/07 09:28:52;;;;;;;13.10;8.60;;;;;;;;;;4992695;28;20448;-45
2023/03/07 09:31:18;;;;;;;13.57;9.50;;;;;;;;;;4992901;28;20189;-45
2023/03/07 09:33:44;;;;;;;9.30;6.77;;;;;;;;;;4993385;28;20424;-45
2023/03/07 09:36:11;;;;;;;23.27;8.20;;;;;;;;;;4993128;28;20905;-45
2023/03/07 09:38:38;;;;;;;11.55;8.45;;;;;;;;;;4993380;28;20272;-45
2023/03/07 09:41:09;;;;;;;14.35;9.10;;;;;;;;;;4992603;28;20181;-46
2023/03/07 09:43:57;;;;;;;19.13;9.98;;;;;;;;;;4993298;28;20223;-45
2023/03/07 09:46:23;;;;;;;10.23;6.35;;;;;;;;;;4993206;28;20184;-45
2023/03/07 09:48:55;;;;;;;9.77;6.20;;;;;;;;;;4993098;28;20215;-45
2023/03/07 09:51:41;;;;;;;10.13;5.85;;;;;;;;;;4991669;28;20444;-45
2023/03/07 09:54:16;;;;;;;14.63;8.27;;;;;;;;;;4991314;28;20580;-45
2023/03/07 09:56:44;;;;;;;9.40;5.20;;;;;;;;;;4992686;28;20193;-45
2023/03/07 09:59:21;;;;;;;6.43;4.90;;;;;;;;;;4985190;28;20181;-45
2023/03/07 10:01:48;;;;;;;9.70;6.05;;;;;;;;;;4992161;28;20234;-45
2023/03/07 10:04:17;;;;;;;8.93;5.85;;;;;;;;;;4992922;28;20239;-45
2023/03/07 10:06:45;;;;;;;7.32;5.60;;;;;;;;;;4992597;28;20210;-45
2023/03/07 10:09:13;;;;;;;8.82;6.07;;;;;;;;;;4992530;28;20200;-45
2023/03/07 10:11:39;;;;;;;8.05;5.65;;;;;;;;;;4991830;28;20204;-45
2023/03/07 10:14:12;;;;;;;8.27;6.67;;;;;;;;;;4992756;28;20173;-45
2023/03/07 10:16:54;;;;;;;6.80;5.72;;;;;;;;;;4992638;28;20490;-44
2023/03/07 10:19:27;;;;;;;10.35;5.25;;;;;;;;;;4986240;28;20655;-44
2023/03/07 10:22:26;;;;;;;9.70;7.43;;;;;;;;;;4989926;28;20208;-44
2023/03/07 10:24:52;;;;;;;10.55;8.02;;;;;;;;;;4987249;28;20231;-45
2023/03/07 10:27:18;;;;;;;7.37;6.70;;;;;;;;;;4992581;28;20212;-45
2023/03/07 10:29:49;;;;;;;6.97;6.28;;;;;;;;;;4992027;28;20466;-44
2023/03/07 10:32:20;;;;;;;8.18;6.75;;;;;;;;;;4992552;28;20254;-45
2023/03/07 10:34:49;;;;;;;6.63;5.97;;;;;;;;;;4991777;28;20193;-45
2023/03/07 10:37:26;;;;;;;5.95;5.47;;;;;;;;;;4991853;28;20181;-45
2023/03/07 10:39:53;;;;;;;8.52;6.40;;;;;;;;;;4992180;28;20653;-45
2023/03/07 10:42:27;;;;;;;8.40;6.22;;;;;;;;;;4991656;28;20205;-45
2023/03/07 10:44:53;;;;;;;8.95;5.97;;;;;;;;;;4991972;28;20191;-45
2023/03/07 10:47:23;;;;;;;7.13;6.43;;;;;;;;;;4992134;28;20264;-45
2023/03/07 10:49:51;;;;;;;6.90;5.72;;;;;;;;;;4989692;28;20971;-45
2023/03/07 10:52:20;;;;;;;7.40;6.50;;;;;;;;;;4989745;28;20207;-45
2023/03/07 10:54:46;;;;;;;7.82;6.75;;;;;;;;;;4992393;28;20187;-44
2023/03/07 10:57:16;;;;;;;8.97;7.07;;;;;;;;;;4993555;28;20260;-45
2023/03/07 10:59:43;;;;;;;7.82;6.32;;;;;;;;;;4982183;28;20416;-46
2023/03/07 11:02:25;;;;;;;9.48;6.47;;;;;;;;;;4982044;28;20204;-46
2023/03/07 11:04:52;;;;;;;8.63;6.97;;;;;;;;;;4990293;28;20181;-45
2023/03/07 11:07:28;;;;;;;9.30;7.30;;;;;;;;;;4990780;28;20187;-46
2023/03/07 11:09:55;;;;;;;8.93;6.80;;;;;;;;;;4991059;28;20546;-46
2023/03/07 11:12:22;;;;;;;13.98;8.45;;;;;;;;;;4991482;28;20463;-46
2023/03/07 11:14:58;;;;;;;8.75;6.20;;;;;;;;;;4992155;28;20641;-46
2023/03/07 11:17:26;;;;;;;10.13;8.00;;;;;;;;;;4992093;28;20185;-46
2023/03/07 11:19:53;;;;;;;9.13;7.53;;;;;;;;;;4990216;28;20181;-46
2023/03/07 11:22:20;;;;;;;8.15;6.63;;;;;;;;;;4991346;28;20669;-46
2023/03/07 11:24:55;;;;;;;8.32;7.13;;;;;;;;;;4992188;28;20568;-45
2023/03/07 11:27:30;;;;;;;7.93;5.88;;;;;;;;;;4991974;28;20184;-45
2023/03/07 11:30:05;;;;;;;9.10;6.93;;;;;;;;;;4991842;28;20218;-45
2023/03/07 11:32:33;;;;;;;9.68;6.82;;;;;;;;;;4991819;28;20205;-46
2023/03/07 11:35:02;;;;;;;10.63;5.70;;;;;;;;;;4991864;28;20700;-47
2023/03/07 11:37:34;;;;;;;7.03;5.65;;;;;;;;;;4991908;28;20262;-46
2023/03/07 11:40:03;;;;;;;9.18;7.07;;;;;;;;;;4991007;28;20553;-46
2023/03/07 11:42:33;;;;;;;7.25;5.80;;;;;;;;;;4991648;28;20259;-47
2023/03/07 11:45:07;;;;;;;9.70;6.28;;;;;;;;;;4988920;28;20913;-47
2023/03/07 11:47:35;;;;;;;8.90;6.15;;;;;;;;;;4991680;28;20267;-46
2023/03/07 11:50:02;;;;;;;7.60;6.30;;;;;;;;;;4991331;28;20211;-46
2023/03/07 11:52:40;;;;;;;7.57;5.90;;;;;;;;;;4993940;28;20197;-46
2023/03/07 11:55:06;;;;;;;9.38;6.38;;;;;;;;;;4994958;28;20310;-47
2023/03/07 11:57:51;;;;;;;7.00;5.80;;;;;;;;;;4995073;28;20284;-45
2023/03/07 12:00:23;;;;;;;7.65;6.00;;;;;;;;;;4987701;28;20436;-45
2023/03/07 12:02:58;;;;;;;7.60;6.38;;;;;;;;;;4995085;28;20189;-46
2023/03/07 12:05:27;;;;;;;7.90;7.10;;;;;;;;;;4995084;28;20326;-45
2023/03/07 12:08:05;;;;;;;8.70;6.93;;;;;;;;;;4992283;28;20223;-47
2023/03/07 12:10:47;;;;;;;9.77;6.60;;;;;;;;;;4993925;28;20232;-46
2023/03/07 12:13:17;;;;;;;8.65;6.63;;;;;;;;;;4993770;28;20672;-45
2023/03/07 12:15:53;;;;;;;10.05;6.80;;;;;;;;;;4994240;28;20180;-45
2023/03/07 12:18:42;;;;;;;7.45;6.00;;;;;;;;;;4994906;28;20180;-46
2023/03/07 12:21:11;;;;;;;7.55;5.57;;;;;;;;;;4992513;28;20204;-46
2023/03/07 12:23:41;;;;;;;9.00;7.00;;;;;;;;;;4992005;28;20645;-45
2023/03/07 12:26:16;;;;;;;9.00;6.75;;;;;;;;;;4994297;28;20757;-45
2023/03/07 12:28:45;;;;;;;6.47;5.65;;;;;;;;;;4989401;28;20235;-45
2023/03/07 12:31:11;;;;;;;5.80;5.10;;;;;;;;;;4993850;28;20235;-45
2023/03/07 12:33:39;;;;;;;5.53;4.83;;;;;;;;;;4994585;28;20193;-45
2023/03/07 12:36:07;;;;;;;5.00;4.50;;;;;;;;;;4991139;28;20471;-45
2023/03/07 12:38:42;;;;;;;5.10;4.60;;;;;;;;;;4994674;28;20673;-45
2023/03/07 12:41:24;;;;;;;5.78;5.05;;;;;;;;;;4986995;28;20173;-45
2023/03/07 12:43:54;;;;;;;4.82;4.32;;;;;;;;;;4991910;28;20188;-44
2023/03/07 12:46:24;;;;;;;8.18;6.10;;;;;;;;;;4994436;28;20712;-45
2023/03/07 12:49:14;;;;;;;5.15;4.65;;;;;;;;;;4989115;28;20239;-45
2023/03/07 12:51:43;;;;;;;5.10;4.55;;;;;;;;;;4991669;28;20724;-46
2023/03/07 12:54:20;;;;;;;5.55;4.28;;;;;;;;;;4989993;28;20177;-43
2023/03/07 12:56:54;;;;;;;7.80;5.28;;;;;;;;;;4994058;28;20192;-45
2023/03/07 12:59:21;;;;;;;7.07;6.07;;;;;;;;;;4994081;28;20180;-43
2023/03/07 13:02:05;;;;;;;7.50;5.63;;;;;;;;;;4992310;28;20283;-44
2023/03/07 13:04:33;;;;;;;7.90;5.80;;;;;;;;;;4994690;28;20273;-46
2023/03/07 13:07:08;;;;;;;9.77;6.85;;;;;;;;;;4994135;28;20542;-45
2023/03/07 13:09:36;;;;;;;11.57;7.45;;;;;;;;;;4993910;28;20236;-46
2023/03/07 13:12:19;;;;;;;11.80;6.82;;;;;;;;;;4993293;28;20267;-47
2023/03/07 13:14:52;;;;;;;9.85;6.63;;;;;;;;;;4992725;28;20189;-46
2023/03/07 13:17:30;;;;;;;7.82;5.78;;;;;;;;;;4993850;28;20179;-46
2023/03/07 13:19:56;;;;;;;9.80;6.38;;;;;;;;;;4992332;28;20181;-46
2023/03/07 13:22:22;;;;;;;6.43;5.53;;;;;;;;;;4992183;28;20759;-45
2023/03/07 13:24:49;;;;;;;8.60;5.43;;;;;;;;;;4993228;28;20451;-45
2023/03/07 13:27:16;;;;;;;7.72;5.60;;;;;;;;;;4993466;28;20404;-45
2023/03/07 13:30:01;;;;;;;8.75;5.75;;;;;;;;;;4993368;28;20608;-46
2023/03/07 13:32:45;;;;;;;9.70;6.22;;;;;;;;;;4987547;28;20208;-47
2023/03/07 13:35:11;;;;;;;8.45;5.85;;;;;;;;;;4985860;28;20215;-47
2023/03/07 13:37:47;;;;;;;7.73;5.20;;;;;;;;;;4993267;28;20555;-45
2023/03/07 13:40:47;;;;;;;8.18;6.15;;;;;;;;;;4990856;28;20427;-46
2023/03/07 13:43:21;;;;;;;12.98;7.57;;;;;;;;;;4993242;28;20201;-46
2023/03/07 13:45:53;;;;;;;11.82;7.25;;;;;;;;;;4993142;28;20294;-47
2023/03/07 13:48:19;;;;;;;8.07;6.93;;;;;;;;;;4992951;28;20177;-45
2023/03/07 13:50:45;;;;;;;9.23;7.00;;;;;;;;;;4991411;28;20287;-47
2023/03/07 13:53:17;;;;;;;8.53;6.23;;;;;;;;;;4992359;28;20523;-46
2023/03/07 13:55:51;;;;;;;12.23;8.18;;;;;;;;;;4992796;28;20443;-45
2023/03/07 13:58:27;;;;;;;11.80;7.00;;;;;;;;;;4993019;28;20177;-46
2023/03/07 14:01:19;;;;;;;9.52;6.30;;;;;;;;;;4992199;28;20247;-46
2023/03/07 14:03:57;;;;;;;10.48;7.15;;;;;;;;;;4991682;28;20260;-46
2023/03/07 14:06:43;;;;;;;9.68;7.35;;;;;;;;;;4992983;28;20195;-45
2023/03/07 14:09:15;;;;;;;8.80;6.10;;;;;;;;;;4984798;28;20208;-46
2023/03/07 14:11:59;;;;;;;9.52;6.25;;;;;;;;;;4992255;28;20193;-45
2023/03/07 14:14:38;;;;;;;10.52;7.00;;;;;;;;;;4987570;28;20220;-45
2023/03/07 14:17:17;;;;;;;9.73;7.10;;;;;;;;;;4992950;28;20252;-45
2023/03/07 14:19:51;;;;;;;10.85;6.68;;;;;;;;;;4989490;28;20661;-45
2023/03/07 14:22:43;;;;;;;9.80;6.63;;;;;;;;;;4990485;28;20267;-47
2023/03/07 14:25:09;;;;;;;13.15;8.25;;;;;;;;;;4977549;28;20189;-47
2023/03/07 14:27:51;;;;;;;11.50;7.67;;;;;;;;;;4992720;28;20647;-45
2023/03/07 14:30:18;;;;;;;9.18;6.55;;;;;;;;;;4987629;28;20527;-46
2023/03/07 14:32:44;;;;;;;9.77;7.00;;;;;;;;;;4992472;28;20719;-47
2023/03/07 14:35:14;;;;;;;10.33;6.67;;;;;;;;;;4992519;28;20215;-47
2023/03/07 14:37:40;;;;;;;10.32;6.97;;;;;;;;;;4992737;28;20446;-45
2023/03/07 14:40:17;;;;;;;15.68;8.02;;;;;;;;;;4991921;28;20184;-47
2023/03/07 14:42:43;;;;;;;12.57;7.85;;;;;;;;;;4992703;28;20200;-45